This is the latest recevied weather packets stored in our database for station/object N0EDB-13. If no packets are shown the sender has not sent any weather packets the latest 10 day(s).
| Time | Temp. | Humidity | Pressure | Rain* | Wind** | Luminosity | Snow |
|---|---|---|---|---|---|---|---|
| 1777625628 | 1.67° C | 86% | 1535.6 hPa | 0 mm | - | 0 W/m² | - |
| 1777625327 | 1.11° C | 86% | 1536.5 hPa | 0 mm | - | 0 W/m² | - |
| 1777625027 | 1.11° C | 86% | 1537.3 hPa | 0 mm | - | 0 W/m² | - |
| 1777624726 | 1.11° C | 84% | 1537.1 hPa | 0 mm | - | 0 W/m² | - |
| 1777624425 | 1.11° C | 85% | 1536.7 hPa | 0 mm | - | 0 W/m² | - |
| 1777624125 | 1.11° C | 84% | 1536.5 hPa | 0 mm | - | 0 W/m² | - |
| 1777623824 | 1.67° C | 84% | 1535.5 hPa | 0 mm | - | 0 W/m² | - |
| 1777623523 | 1.67° C | 81% | 1534.4 hPa | 0 mm | - | 0 W/m² | - |
| 1777623222 | 2.22° C | 82% | 1534.3 hPa | 0 mm | - | 0 W/m² | - |
| 1777622921 | 2.22° C | 82% | 1534 hPa | 0 mm | - | 0 W/m² | - |
| 1777622621 | 2.22° C | 82% | 1533.6 hPa | 0 mm | - | 0 W/m² | - |
| 1777622321 | 2.22° C | 80% | 1532.8 hPa | 0 mm | - | 0 W/m² | - |
| 1777622021 | 2.78° C | 81% | 1532.4 hPa | 0 mm | - | 0 W/m² | - |
| 1777621720 | 2.78° C | 81% | 1532.6 hPa | 0 mm | - | 0 W/m² | - |
| 1777621420 | 2.22° C | 81% | 1532.8 hPa | 0 mm | - | 0 W/m² | - |
| 1777621119 | 2.22° C | 82% | 1533 hPa | 0 mm | - | 0 W/m² | - |
| 1777620819 | 2.22° C | 83% | 1533 hPa | 0 mm | - | 0 W/m² | - |
| 1777620519 | 2.78° C | 82% | 1532.7 hPa | 0 mm | - | 0 W/m² | - |
| 1777620218 | 2.78° C | 82% | 1532.4 hPa | 0 mm | - | 0 W/m² | - |
| 1777619918 | 2.78° C | 82% | 1532.4 hPa | 0 mm | - | 0 W/m² | - |
| 1777619616 | 2.78° C | 82% | 1532.3 hPa | 0 mm | - | 0 W/m² | - |
| 1777619316 | 2.78° C | 82% | 1532.2 hPa | 0 mm | - | 0 W/m² | - |
| 1777619016 | 2.78° C | 83% | 1532.1 hPa | 0 mm | - | 0 W/m² | - |
| 1777618716 | 2.78° C | 82% | 1531.8 hPa | 0 mm | - | 0 W/m² | - |
| 1777618415 | 3.33° C | 81% | 1531.3 hPa | 0 mm | - | 0 W/m² | - |
* Rain latest hour (hover to see other rain measurements)
** Current wind speed in m/s (hover to see current wind gust speed)